Time;durP1;ratioP1;P1;durP2;ratioP2;P2;SDS_P1;SDS_P2;PMS_P1;PMS_P2;Temp;Humidity;BMP_temperature;BMP_pressure;BME280_temperature;BME280_humidity;BME280_pressure;Samples;Min_cycle;Max_cycle;Signal;HPM_P1;HPM_P2
2021/12/02 00:00:36;;;;;;;3.07;2.10;;;;;;;;;;2084777;28;20195;-62
2021/12/02 00:01:37;;;;;;;5.53;2.53;;;;;;;;;;2083631;28;20234;-61
2021/12/02 00:02:37;;;;;;;4.03;1.80;;;;;;;;;;2082881;28;20168;-61
2021/12/02 00:03:39;;;;;;;4.20;2.33;;;;;;;;;;2079995;28;20598;-58
2021/12/02 00:04:40;;;;;;;3.37;1.97;;;;;;;;;;2082727;28;20516;-62
2021/12/02 00:05:40;;;;;;;6.00;2.27;;;;;;;;;;2079980;28;20694;-61
2021/12/02 00:06:40;;;;;;;5.43;2.47;;;;;;;;;;2080660;28;20252;-60
2021/12/02 00:07:41;;;;;;;7.50;2.17;;;;;;;;;;2082206;28;20646;-62
2021/12/02 00:08:41;;;;;;;7.17;2.43;;;;;;;;;;2082620;28;20651;-59
2021/12/02 00:09:42;;;;;;;3.13;2.40;;;;;;;;;;2081603;28;20179;-60
2021/12/02 00:10:42;;;;;;;5.33;2.67;;;;;;;;;;2082066;28;20180;-62
2021/12/02 00:11:43;;;;;;;6.63;3.53;;;;;;;;;;2081650;28;20188;-61
2021/12/02 00:12:43;;;;;;;6.70;2.20;;;;;;;;;;2080395;28;20334;-62
2021/12/02 00:13:55;;;;;;;4.07;2.20;;;;;;;;;;2078984;28;20203;-61
2021/12/02 00:14:58;;;;;;;7.13;2.83;;;;;;;;;;2078287;28;20176;-62
2021/12/02 00:17:28;;;;;;;6.83;3.10;;;;;;;;;;2047384;28;20186;-61
2021/12/02 00:21:02;;;;;;;7.13;2.83;;;;;;;;;;2077744;28;20217;-61
2021/12/02 00:21:09;;;;;;;6.23;2.37;;;;;;;;;;2079878;28;20215;-62
2021/12/02 00:22:10;;;;;;;8.43;2.53;;;;;;;;;;2079367;28;20169;-61
2021/12/02 00:23:28;;;;;;;7.30;2.73;;;;;;;;;;2080006;28;20606;-62
2021/12/02 00:24:31;;;;;;;7.43;2.37;;;;;;;;;;2077251;28;20846;-61
2021/12/02 00:25:31;;;;;;;2.70;2.40;;;;;;;;;;2080873;28;20640;-61
2021/12/02 00:26:32;;;;;;;3.73;2.30;;;;;;;;;;2082294;28;20278;-60
2021/12/02 00:27:33;;;;;;;2.83;2.20;;;;;;;;;;2078286;28;20184;-59
2021/12/02 00:28:36;;;;;;;2.83;2.50;;;;;;;;;;2080679;28;20174;-59
2021/12/02 00:29:37;;;;;;;6.07;2.83;;;;;;;;;;2080625;28;20587;-62
2021/12/02 00:30:37;;;;;;;6.57;2.50;;;;;;;;;;2077653;28;20259;-62
2021/12/02 00:31:38;;;;;;;5.67;2.87;;;;;;;;;;2082465;28;20178;-60
2021/12/02 00:32:41;;;;;;;6.97;2.30;;;;;;;;;;2082213;28;20190;-61
2021/12/02 00:33:46;;;;;;;7.57;2.90;;;;;;;;;;2082751;28;20226;-62
2021/12/02 00:34:46;;;;;;;5.57;2.23;;;;;;;;;;2083172;28;20352;-64
2021/12/02 00:35:47;;;;;;;5.20;2.23;;;;;;;;;;2082310;28;20173;-59
2021/12/02 00:36:47;;;;;;;5.73;2.50;;;;;;;;;;2082343;28;20227;-62
2021/12/02 00:37:48;;;;;;;7.90;2.63;;;;;;;;;;2079431;28;20792;-62
2021/12/02 00:38:48;;;;;;;4.57;2.50;;;;;;;;;;2082243;28;20536;-59
2021/12/02 00:39:51;;;;;;;5.77;2.87;;;;;;;;;;2083728;28;20180;-60
2021/12/02 00:40:52;;;;;;;5.37;2.80;;;;;;;;;;2080103;28;20310;-60
2021/12/02 00:41:52;;;;;;;7.57;2.43;;;;;;;;;;2080890;28;20176;-59
2021/12/02 00:42:53;;;;;;;4.77;2.60;;;;;;;;;;2078929;28;20842;-61
2021/12/02 00:43:54;;;;;;;2.60;2.33;;;;;;;;;;2080132;28;20656;-60
2021/12/02 00:44:57;;;;;;;3.43;2.57;;;;;;;;;;2082187;28;20230;-60
2021/12/02 00:45:57;;;;;;;8.77;2.77;;;;;;;;;;2082335;28;20171;-61
2021/12/02 00:47:01;;;;;;;4.17;2.10;;;;;;;;;;2081766;28;20568;-59
2021/12/02 00:48:01;;;;;;;7.40;2.67;;;;;;;;;;2081913;28;20176;-63
2021/12/02 00:49:03;;;;;;;6.13;2.37;;;;;;;;;;2081842;28;20886;-60
2021/12/02 00:50:04;;;;;;;6.43;2.60;;;;;;;;;;2078966;28;20661;-55
2021/12/02 00:51:05;;;;;;;7.00;2.27;;;;;;;;;;2082714;28;20196;-60
2021/12/02 00:52:06;;;;;;;6.40;2.30;;;;;;;;;;2083314;28;20227;-61
2021/12/02 00:53:07;;;;;;;6.90;2.57;;;;;;;;;;2083235;28;20771;-61
2021/12/02 00:54:08;;;;;;;3.50;2.33;;;;;;;;;;2080392;28;20322;-61
2021/12/02 00:55:08;;;;;;;3.83;2.40;;;;;;;;;;2076568;28;20177;-60
2021/12/02 00:56:10;;;;;;;5.07;2.40;;;;;;;;;;2079936;28;20296;-59
2021/12/02 00:57:11;;;;;;;7.53;2.40;;;;;;;;;;2081940;28;20205;-60
2021/12/02 00:58:15;;;;;;;6.57;2.40;;;;;;;;;;2079399;28;20192;-61
2021/12/02 00:59:16;;;;;;;8.00;2.70;;;;;;;;;;2080912;28;20176;-61
2021/12/02 01:00:16;;;;;;;6.00;2.70;;;;;;;;;;2079120;28;20177;-61
2021/12/02 01:01:17;;;;;;;7.17;2.60;;;;;;;;;;2089221;22;20224;-54
2021/12/02 01:02:18;;;;;;;4.53;2.90;;;;;;;;;;2074838;28;20878;-54
2021/12/02 01:03:19;;;;;;;3.60;2.30;;;;;;;;;;2075158;28;20176;-56
2021/12/02 01:04:22;;;;;;;8.80;2.50;;;;;;;;;;2074089;28;20199;-55
2021/12/02 01:05:22;;;;;;;3.50;1.93;;;;;;;;;;2074564;28;20219;-56
2021/12/02 01:06:23;;;;;;;4.70;3.10;;;;;;;;;;2077618;28;20180;-56
2021/12/02 01:07:24;;;;;;;7.70;2.50;;;;;;;;;;2077433;28;20169;-57
2021/12/02 01:08:25;;;;;;;6.90;2.20;;;;;;;;;;2077775;28;20217;-56
2021/12/02 01:09:25;;;;;;;5.10;2.37;;;;;;;;;;2075524;28;20168;-55
2021/12/02 01:10:26;;;;;;;6.47;2.60;;;;;;;;;;2077905;28;20230;-57
2021/12/02 01:11:26;;;;;;;6.63;3.57;;;;;;;;;;2076801;28;20231;-56
2021/12/02 01:12:27;;;;;;;7.20;2.20;;;;;;;;;;2075831;28;20173;-55
2021/12/02 01:13:27;;;;;;;5.03;2.67;;;;;;;;;;2075953;28;20173;-58
2021/12/02 01:14:28;;;;;;;3.13;2.23;;;;;;;;;;2076511;28;20193;-55
2021/12/02 01:15:28;;;;;;;3.37;2.17;;;;;;;;;;2074836;28;20293;-53
2021/12/02 01:16:28;;;;;;;4.10;2.20;;;;;;;;;;2077285;28;20238;-55
2021/12/02 01:17:29;;;;;;;4.30;1.97;;;;;;;;;;2078415;28;20207;-54
2021/12/02 01:18:29;;;;;;;4.17;2.10;;;;;;;;;;2073852;28;20541;-56
2021/12/02 01:19:29;;;;;;;3.40;2.40;;;;;;;;;;2075032;28;20177;-56
2021/12/02 01:20:31;;;;;;;6.50;3.10;;;;;;;;;;2075459;28;20179;-56
2021/12/02 01:21:31;;;;;;;5.37;2.60;;;;;;;;;;2076290;28;20196;-55
2021/12/02 01:22:35;;;;;;;8.03;2.50;;;;;;;;;;2076084;28;20209;-52
2021/12/02 01:23:35;;;;;;;4.30;2.07;;;;;;;;;;2076869;28;20204;-57
2021/12/02 01:24:37;;;;;;;4.20;2.10;;;;;;;;;;2079233;28;20201;-56
2021/12/02 01:25:39;;;;;;;6.50;2.17;;;;;;;;;;2076718;28;20176;-55
2021/12/02 01:26:40;;;;;;;3.77;2.20;;;;;;;;;;2077560;28;20195;-53
2021/12/02 01:27:40;;;;;;;7.53;2.60;;;;;;;;;;2074763;28;20760;-53
2021/12/02 01:28:41;;;;;;;6.20;2.60;;;;;;;;;;2075460;28;20185;-52
2021/12/02 01:29:41;;;;;;;4.70;2.50;;;;;;;;;;2077087;28;20218;-53
2021/12/02 01:30:41;;;;;;;3.80;2.40;;;;;;;;;;2078604;28;20173;-56
2021/12/02 01:31:43;;;;;;;4.70;2.20;;;;;;;;;;2076084;28;20180;-56
2021/12/02 01:32:44;;;;;;;6.93;2.60;;;;;;;;;;2072373;28;20227;-52
2021/12/02 01:33:45;;;;;;;2.53;1.83;;;;;;;;;;2076633;28;20223;-56
2021/12/02 01:34:47;;;;;;;7.60;2.73;;;;;;;;;;2076499;28;20197;-54
2021/12/02 01:35:58;;;;;;;3.87;2.67;;;;;;;;;;2076886;28;20231;-52
2021/12/02 01:37:00;;;;;;;2.50;2.07;;;;;;;;;;2075350;28;20164;-56
2021/12/02 01:38:01;;;;;;;3.60;2.00;;;;;;;;;;2075712;28;20694;-54
2021/12/02 01:39:03;;;;;;;4.07;2.50;;;;;;;;;;2067651;28;20171;-54
2021/12/02 01:40:04;;;;;;;2.90;2.20;;;;;;;;;;2078503;28;20252;-53
2021/12/02 01:41:04;;;;;;;2.77;2.00;;;;;;;;;;2076071;28;20181;-56
2021/12/02 01:42:06;;;;;;;4.37;2.53;;;;;;;;;;2075330;28;20183;-51
2021/12/02 01:43:08;;;;;;;2.53;2.20;;;;;;;;;;2076441;28;20278;-52
2021/12/02 01:44:10;;;;;;;7.17;2.47;;;;;;;;;;2074593;28;20178;-52
2021/12/02 01:45:13;;;;;;;7.57;2.83;;;;;;;;;;2074199;28;20185;-50
2021/12/02 01:46:15;;;;;;;3.67;2.20;;;;;;;;;;2075670;28;20189;-53
2021/12/02 01:47:16;;;;;;;7.63;2.97;;;;;;;;;;2069546;28;20187;-53
2021/12/02 01:48:22;;;;;;;4.43;2.23;;;;;;;;;;2076131;28;20185;-55
2021/12/02 01:49:25;;;;;;;5.93;2.10;;;;;;;;;;2072201;28;20575;-52
2021/12/02 01:50:26;;;;;;;5.53;2.80;;;;;;;;;;2076523;28;20199;-59
2021/12/02 01:51:27;;;;;;;3.23;2.37;;;;;;;;;;2075598;28;20209;-52
2021/12/02 01:52:30;;;;;;;5.00;2.37;;;;;;;;;;2073075;28;20779;-55
2021/12/02 01:53:32;;;;;;;4.97;2.60;;;;;;;;;;2072013;28;20261;-54
2021/12/02 01:54:34;;;;;;;6.10;2.63;;;;;;;;;;2075224;28;20637;-52
2021/12/02 01:55:35;;;;;;;4.37;2.40;;;;;;;;;;2075535;28;20245;-53
2021/12/02 01:56:41;;;;;;;4.77;1.90;;;;;;;;;;2076268;28;20196;-54
2021/12/02 01:58:01;;;;;;;6.90;2.50;;;;;;;;;;2077126;28;20242;-55
2021/12/02 01:59:10;;;;;;;3.20;2.40;;;;;;;;;;2072374;28;20649;-52
2021/12/02 02:00:19;;;;;;;4.80;2.20;;;;;;;;;;2074869;28;20586;-58
2021/12/02 02:01:22;;;;;;;5.40;2.67;;;;;;;;;;2076279;28;20204;-53
2021/12/02 02:02:24;;;;;;;6.63;1.90;;;;;;;;;;2074152;28;20259;-53
2021/12/02 02:03:25;;;;;;;3.63;2.13;;;;;;;;;;2074366;28;20183;-53
2021/12/02 02:04:25;;;;;;;8.83;3.27;;;;;;;;;;2076287;28;20191;-51
2021/12/02 02:05:25;;;;;;;3.03;2.10;;;;;;;;;;2078941;28;20176;-52
2021/12/02 02:06:26;;;;;;;5.03;2.50;;;;;;;;;;2070670;28;20245;-57
2021/12/02 02:07:28;;;;;;;6.23;3.07;;;;;;;;;;2075120;28;20187;-52
2021/12/02 02:08:28;;;;;;;6.53;2.77;;;;;;;;;;2074362;28;20189;-56
2021/12/02 02:09:30;;;;;;;4.80;2.53;;;;;;;;;;2068482;28;20173;-52
2021/12/02 02:10:36;;;;;;;4.53;1.87;;;;;;;;;;2068639;28;20184;-54
2021/12/02 02:11:37;;;;;;;2.20;1.97;;;;;;;;;;2076565;28;20219;-59
2021/12/02 02:12:37;;;;;;;3.67;2.50;;;;;;;;;;2074621;28;20185;-54
2021/12/02 02:13:40;;;;;;;6.70;2.90;;;;;;;;;;2073016;28;20176;-55
2021/12/02 02:14:42;;;;;;;6.83;2.83;;;;;;;;;;2078779;28;20323;-55
2021/12/02 02:15:46;;;;;;;5.13;2.63;;;;;;;;;;2073095;28;20235;-55
2021/12/02 02:16:47;;;;;;;3.63;2.33;;;;;;;;;;2073858;28;20173;-51
2021/12/02 02:18:01;;;;;;;12.57;2.80;;;;;;;;;;2073152;28;20177;-53
2021/12/02 02:19:03;;;;;;;7.20;3.13;;;;;;;;;;2067023;28;20303;-53
2021/12/02 02:20:06;;;;;;;5.23;2.30;;;;;;;;;;2076127;28;20263;-52
2021/12/02 02:21:13;;;;;;;8.37;2.30;;;;;;;;;;2075392;28;20184;-56
2021/12/02 02:22:19;;;;;;;4.90;2.33;;;;;;;;;;2076918;28;20288;-52
2021/12/02 02:23:19;;;;;;;3.40;2.57;;;;;;;;;;2078618;28;20203;-57
2021/12/02 02:24:20;;;;;;;4.70;2.37;;;;;;;;;;2084866;28;20188;-56
2021/12/02 02:25:20;;;;;;;7.73;3.03;;;;;;;;;;2081454;28;20177;-56
2021/12/02 02:26:26;;;;;;;5.20;2.40;;;;;;;;;;2080146;28;20195;-57
2021/12/02 02:27:27;;;;;;;4.77;3.17;;;;;;;;;;2080219;28;20216;-58
2021/12/02 02:28:28;;;;;;;3.40;2.20;;;;;;;;;;2081541;28;20200;-57
2021/12/02 02:29:28;;;;;;;4.83;2.20;;;;;;;;;;2084526;28;20180;-55
2021/12/02 02:30:28;;;;;;;5.30;2.50;;;;;;;;;;2081691;28;20188;-58
2021/12/02 02:31:31;;;;;;;4.27;2.83;;;;;;;;;;2074174;28;20255;-58
2021/12/02 02:32:33;;;;;;;3.67;2.40;;;;;;;;;;2082474;28;20179;-55
2021/12/02 02:33:36;;;;;;;5.43;2.40;;;;;;;;;;2076553;28;20291;-58
2021/12/02 02:34:37;;;;;;;11.73;2.70;;;;;;;;;;2083769;28;20176;-56
2021/12/02 02:35:37;;;;;;;10.80;2.77;;;;;;;;;;2080876;28;20175;-58
2021/12/02 02:36:40;;;;;;;4.80;2.67;;;;;;;;;;2081297;28;20201;-57
2021/12/02 02:37:41;;;;;;;11.23;2.97;;;;;;;;;;2081556;28;20173;-57
2021/12/02 02:38:42;;;;;;;2.70;2.43;;;;;;;;;;2081551;28;20164;-57
2021/12/02 02:39:42;;;;;;;9.77;2.90;;;;;;;;;;2082614;28;20183;-58
2021/12/02 02:40:45;;;;;;;6.33;2.17;;;;;;;;;;2080826;28;20204;-55
2021/12/02 02:41:48;;;;;;;6.77;3.00;;;;;;;;;;2081554;28;20208;-55
2021/12/02 02:42:49;;;;;;;4.50;2.60;;;;;;;;;;2071622;28;20615;-51
2021/12/02 02:43:50;;;;;;;5.23;2.30;;;;;;;;;;2081077;28;20184;-54
2021/12/02 02:44:51;;;;;;;9.70;2.53;;;;;;;;;;2082278;28;20169;-55
2021/12/02 02:45:52;;;;;;;4.20;2.20;;;;;;;;;;2078561;28;20197;-53
2021/12/02 02:46:52;;;;;;;9.57;3.47;;;;;;;;;;2080602;28;20184;-57
2021/12/02 02:47:52;;;;;;;6.30;3.03;;;;;;;;;;2075048;28;20199;-60
2021/12/02 02:48:53;;;;;;;10.23;3.17;;;;;;;;;;2076966;28;20186;-52
2021/12/02 02:49:53;;;;;;;7.77;2.67;;;;;;;;;;2073975;28;20174;-53
2021/12/02 02:50:53;;;;;;;4.07;2.80;;;;;;;;;;2074995;28;20685;-52
2021/12/02 02:51:54;;;;;;;11.03;3.03;;;;;;;;;;2072804;28;20173;-56
2021/12/02 02:53:02;;;;;;;6.43;3.33;;;;;;;;;;2077987;28;20169;-56
2021/12/02 02:54:05;;;;;;;5.63;2.67;;;;;;;;;;2074291;28;20181;-56
2021/12/02 02:55:05;;;;;;;5.20;2.80;;;;;;;;;;2080807;28;20177;-57
2021/12/02 02:56:10;;;;;;;5.67;2.40;;;;;;;;;;2078564;28;20235;-57
2021/12/02 02:57:12;;;;;;;4.47;2.33;;;;;;;;;;2079290;28;20650;-58
2021/12/02 02:58:30;;;;;;;7.07;2.93;;;;;;;;;;2080679;28;20169;-57
2021/12/02 03:00:18;;;;;;;4.40;2.53;;;;;;;;;;2079866;28;20260;-61
2021/12/02 03:01:15;;;;;;;3.13;2.77;;;;;;;;;;2067648;28;20182;-57
2021/12/02 03:04:36;;;;;;;9.40;2.63;;;;;;;;;;2080392;28;20211;-56
2021/12/02 03:07:12;;;;;;;5.40;2.37;;;;;;;;;;2079399;28;20161;-53
2021/12/02 03:08:18;;;;;;;3.40;2.37;;;;;;;;;;2075690;28;20177;-53
2021/12/02 03:10:43;;;;;;;9.40;2.87;;;;;;;;;;2075658;28;20192;-56
2021/12/02 03:11:51;;;;;;;8.97;3.40;;;;;;;;;;2074190;28;20574;-59
2021/12/02 03:13:10;;;;;;;6.27;2.60;;;;;;;;;;2074343;28;20164;-56
2021/12/02 03:14:15;;;;;;;6.33;2.63;;;;;;;;;;2076527;28;20161;-57
2021/12/02 03:17:36;;;;;;;5.57;3.03;;;;;;;;;;2073669;28;20771;-52
2021/12/02 03:18:36;;;;;;;5.27;2.50;;;;;;;;;;2077380;28;20184;-52
2021/12/02 03:19:40;;;;;;;6.13;3.10;;;;;;;;;;2074472;28;20665;-53
2021/12/02 03:20:41;;;;;;;9.10;3.03;;;;;;;;;;2076332;28;20169;-52
2021/12/02 03:21:41;;;;;;;3.33;2.33;;;;;;;;;;2074698;28;20205;-54
2021/12/02 03:22:43;;;;;;;3.13;2.23;;;;;;;;;;2076230;28;20227;-53
2021/12/02 03:23:47;;;;;;;6.40;3.33;;;;;;;;;;2071833;28;20232;-56
2021/12/02 03:24:47;;;;;;;5.30;2.77;;;;;;;;;;2076603;28;20168;-52
2021/12/02 03:25:48;;;;;;;8.27;2.70;;;;;;;;;;2073755;28;20184;-53
2021/12/02 03:26:48;;;;;;;8.07;2.73;;;;;;;;;;2075057;28;20183;-52
2021/12/02 03:27:48;;;;;;;6.13;2.43;;;;;;;;;;2077037;28;20555;-55
2021/12/02 03:28:51;;;;;;;3.97;2.67;;;;;;;;;;2074419;28;20182;-53
2021/12/02 03:29:52;;;;;;;4.97;3.30;;;;;;;;;;2078874;28;20184;-54
2021/12/02 03:30:52;;;;;;;3.83;3.00;;;;;;;;;;2074336;28;20629;-52
2021/12/02 03:31:52;;;;;;;7.80;3.10;;;;;;;;;;2077616;28;20172;-51
2021/12/02 03:32:53;;;;;;;9.10;3.13;;;;;;;;;;2073777;28;20202;-51
2021/12/02 03:33:53;;;;;;;6.57;2.50;;;;;;;;;;2067331;28;20169;-56
2021/12/02 03:34:53;;;;;;;8.37;3.30;;;;;;;;;;2073330;28;20704;-54
2021/12/02 03:35:53;;;;;;;6.57;2.77;;;;;;;;;;2078292;28;20595;-52
2021/12/02 03:36:54;;;;;;;6.37;2.67;;;;;;;;;;2071629;28;20180;-53
2021/12/02 03:37:54;;;;;;;6.80;2.90;;;;;;;;;;2075667;28;20688;-52
2021/12/02 03:38:54;;;;;;;5.97;2.33;;;;;;;;;;2073758;28;20201;-51
2021/12/02 03:39:54;;;;;;;8.03;2.97;;;;;;;;;;2077958;28;20272;-55
2021/12/02 03:40:55;;;;;;;5.80;2.70;;;;;;;;;;2074837;28;20264;-52
2021/12/02 03:41:55;;;;;;;6.17;2.30;;;;;;;;;;2075980;28;20562;-54
2021/12/02 03:42:56;;;;;;;4.87;2.40;;;;;;;;;;2075259;28;20625;-52
2021/12/02 03:43:56;;;;;;;9.80;2.90;;;;;;;;;;2075154;28;20180;-53
2021/12/02 03:44:56;;;;;;;4.20;2.57;;;;;;;;;;2075588;28;20171;-55
2021/12/02 03:45:56;;;;;;;11.93;3.07;;;;;;;;;;2073789;28;20181;-53
2021/12/02 03:46:57;;;;;;;6.57;2.90;;;;;;;;;;2075567;28;20165;-53
2021/12/02 03:47:57;;;;;;;6.53;2.10;;;;;;;;;;2076627;28;20165;-51
2021/12/02 03:48:58;;;;;;;4.97;2.83;;;;;;;;;;2075471;28;20186;-50
2021/12/02 03:49:58;;;;;;;5.90;3.00;;;;;;;;;;2076992;28;20250;-52
2021/12/02 03:50:58;;;;;;;5.70;2.33;;;;;;;;;;2075476;28;20203;-52
2021/12/02 03:51:59;;;;;;;5.83;3.00;;;;;;;;;;2076213;28;20539;-56
2021/12/02 03:52:59;;;;;;;6.63;2.40;;;;;;;;;;2074546;28;20188;-54
2021/12/02 03:54:00;;;;;;;2.83;2.50;;;;;;;;;;2072983;28;20191;-53
2021/12/02 03:55:00;;;;;;;2.77;2.10;;;;;;;;;;2074426;28;20165;-52
2021/12/02 03:56:01;;;;;;;8.33;2.43;;;;;;;;;;2075655;28;20734;-55
2021/12/02 03:57:02;;;;;;;6.03;2.40;;;;;;;;;;2070806;28;20185;-58
2021/12/02 03:58:02;;;;;;;4.33;2.43;;;;;;;;;;2074913;28;20712;-52
2021/12/02 03:59:03;;;;;;;4.67;3.00;;;;;;;;;;2074684;28;20171;-52
2021/12/02 04:00:03;;;;;;;3.93;2.43;;;;;;;;;;2069707;28;20570;-54
2021/12/02 04:01:13;;;;;;;7.93;3.00;;;;;;;;;;2072663;28;20685;-56
2021/12/02 04:02:13;;;;;;;5.63;2.40;;;;;;;;;;2077025;28;20188;-52
2021/12/02 04:03:13;;;;;;;8.17;2.77;;;;;;;;;;2076640;28;20604;-53
2021/12/02 04:04:14;;;;;;;6.47;2.33;;;;;;;;;;2074394;28;20184;-51
2021/12/02 04:05:14;;;;;;;4.50;2.30;;;;;;;;;;2075926;28;20196;-53
2021/12/02 04:06:15;;;;;;;6.60;2.50;;;;;;;;;;2073067;28;20188;-53
2021/12/02 04:07:18;;;;;;;2.67;2.17;;;;;;;;;;2075986;28;20687;-55
2021/12/02 04:08:19;;;;;;;3.80;2.10;;;;;;;;;;2074476;28;20176;-53
2021/12/02 04:09:22;;;;;;;3.57;2.03;;;;;;;;;;2076157;28;20684;-54
2021/12/02 04:10:23;;;;;;;5.63;2.37;;;;;;;;;;2072644;28;20656;-56
2021/12/02 04:11:36;;;;;;;7.23;2.67;;;;;;;;;;2076141;28;20200;-51
2021/12/02 04:14:11;;;;;;;6.07;3.30;;;;;;;;;;2071168;28;20549;-50
2021/12/02 04:15:15;;;;;;;5.47;2.37;;;;;;;;;;2073491;28;20529;-52
2021/12/02 04:16:18;;;;;;;6.87;2.40;;;;;;;;;;2076247;28;20169;-54
2021/12/02 04:17:28;;;;;;;4.73;2.87;;;;;;;;;;2074206;28;20168;-54
2021/12/02 04:18:28;;;;;;;3.33;2.50;;;;;;;;;;2073444;28;20181;-56
2021/12/02 04:19:28;;;;;;;4.67;2.30;;;;;;;;;;2076417;28;20569;-51
2021/12/02 04:20:29;;;;;;;5.53;2.57;;;;;;;;;;2075615;28;20173;-52
2021/12/02 04:21:29;;;;;;;8.60;2.37;;;;;;;;;;2069329;28;20291;-52
2021/12/02 04:22:30;;;;;;;6.67;2.43;;;;;;;;;;2076145;28;20175;-54
2021/12/02 04:23:30;;;;;;;10.27;2.70;;;;;;;;;;2074448;28;20181;-53
2021/12/02 04:24:31;;;;;;;6.97;2.80;;;;;;;;;;2071128;28;20169;-52
2021/12/02 04:25:31;;;;;;;5.23;2.47;;;;;;;;;;2074794;28;20188;-52
2021/12/02 04:26:31;;;;;;;4.00;2.27;;;;;;;;;;2075545;28;20231;-52
2021/12/02 04:27:32;;;;;;;6.97;2.70;;;;;;;;;;2074965;28;20165;-52
2021/12/02 04:28:32;;;;;;;3.93;2.43;;;;;;;;;;2068966;28;20181;-53
2021/12/02 04:29:33;;;;;;;6.87;2.67;;;;;;;;;;2077736;28;20598;-52
2021/12/02 04:30:33;;;;;;;6.00;2.87;;;;;;;;;;2071602;28;20563;-52
2021/12/02 04:31:34;;;;;;;6.20;2.30;;;;;;;;;;2075881;28;20342;-53
2021/12/02 04:32:34;;;;;;;4.40;2.20;;;;;;;;;;2076485;28;20198;-52
2021/12/02 04:33:34;;;;;;;5.43;2.83;;;;;;;;;;2075883;28;20181;-54
2021/12/02 04:34:34;;;;;;;4.07;2.53;;;;;;;;;;2075674;28;20188;-53
2021/12/02 04:35:35;;;;;;;6.87;2.77;;;;;;;;;;2080416;28;20172;-56
2021/12/02 04:36:35;;;;;;;4.90;2.50;;;;;;;;;;2079900;28;20202;-52
2021/12/02 04:37:35;;;;;;;4.97;2.70;;;;;;;;;;2078790;28;20168;-52
2021/12/02 04:38:35;;;;;;;6.73;2.40;;;;;;;;;;2077274;28;20622;-53
2021/12/02 04:39:36;;;;;;;7.53;3.10;;;;;;;;;;2077416;28;20172;-53
2021/12/02 04:40:40;;;;;;;6.73;2.77;;;;;;;;;;2077216;28;20190;-51
2021/12/02 04:41:41;;;;;;;2.80;2.57;;;;;;;;;;2075447;28;20192;-52
2021/12/02 04:42:42;;;;;;;6.10;2.53;;;;;;;;;;2077319;28;20508;-52
2021/12/02 04:43:42;;;;;;;3.67;2.80;;;;;;;;;;2077986;28;20216;-54
2021/12/02 04:44:43;;;;;;;6.20;2.60;;;;;;;;;;2068514;28;20706;-53
2021/12/02 04:45:43;;;;;;;7.13;2.53;;;;;;;;;;2069635;28;20268;-51
2021/12/02 04:46:44;;;;;;;5.67;2.43;;;;;;;;;;2069074;28;20185;-50
2021/12/02 04:47:44;;;;;;;4.20;2.30;;;;;;;;;;2075453;28;20184;-53
2021/12/02 04:48:44;;;;;;;4.17;2.57;;;;;;;;;;2078905;28;20706;-52
2021/12/02 04:49:45;;;;;;;5.77;2.30;;;;;;;;;;2076968;28;20188;-51
2021/12/02 04:50:45;;;;;;;4.10;2.00;;;;;;;;;;2073311;28;20713;-54
2021/12/02 04:51:46;;;;;;;2.47;2.07;;;;;;;;;;2078617;28;20210;-54
2021/12/02 04:52:46;;;;;;;4.47;2.80;;;;;;;;;;2074596;28;20176;-54
2021/12/02 04:53:46;;;;;;;4.03;1.93;;;;;;;;;;2077419;28;20265;-54
2021/12/02 04:54:47;;;;;;;4.97;2.40;;;;;;;;;;2080272;28;20188;-52
2021/12/02 04:55:47;;;;;;;3.40;2.13;;;;;;;;;;2076718;28;20234;-52
2021/12/02 04:56:47;;;;;;;5.63;2.43;;;;;;;;;;2078198;28;20187;-51
2021/12/02 04:57:48;;;;;;;4.27;3.57;;;;;;;;;;2076223;28;20256;-53
2021/12/02 04:58:48;;;;;;;3.20;2.53;;;;;;;;;;2074288;28;20230;-52
2021/12/02 04:59:49;;;;;;;3.27;2.60;;;;;;;;;;2075750;28;20223;-52
2021/12/02 05:00:50;;;;;;;4.17;2.43;;;;;;;;;;2074415;28;20192;-54
2021/12/02 05:01:50;;;;;;;4.87;2.80;;;;;;;;;;2077835;28;20181;-54
2021/12/02 05:02:51;;;;;;;4.00;2.60;;;;;;;;;;2078721;28;20188;-52
2021/12/02 05:03:51;;;;;;;2.97;2.33;;;;;;;;;;2084091;28;20164;-52
2021/12/02 05:04:51;;;;;;;7.47;3.13;;;;;;;;;;2081603;28;20188;-51
2021/12/02 05:05:51;;;;;;;3.87;3.13;;;;;;;;;;2084911;28;20169;-52
2021/12/02 05:06:51;;;;;;;2.40;2.17;;;;;;;;;;2083151;28;20227;-51
2021/12/02 05:07:53;;;;;;;3.17;2.57;;;;;;;;;;2083999;28;20177;-51
2021/12/02 05:08:53;;;;;;;4.53;2.70;;;;;;;;;;2082524;28;20169;-51
2021/12/02 05:09:54;;;;;;;6.47;2.60;;;;;;;;;;2081618;28;20173;-52
2021/12/02 05:10:54;;;;;;;6.33;2.70;;;;;;;;;;2081659;28;20164;-52
2021/12/02 05:11:54;;;;;;;5.53;2.53;;;;;;;;;;2076782;28;20244;-56
2021/12/02 05:12:54;;;;;;;4.53;2.43;;;;;;;;;;2078801;28;20181;-51
2021/12/02 05:13:55;;;;;;;4.63;2.80;;;;;;;;;;2079679;28;20177;-51
2021/12/02 05:14:55;;;;;;;4.37;2.37;;;;;;;;;;2077290;28;20166;-53
2021/12/02 05:15:55;;;;;;;3.97;2.63;;;;;;;;;;2082423;28;20211;-52
2021/12/02 05:16:56;;;;;;;4.00;2.57;;;;;;;;;;2081391;28;20164;-53
2021/12/02 05:17:56;;;;;;;5.27;2.63;;;;;;;;;;2081763;28;20184;-56
2021/12/02 05:18:56;;;;;;;3.93;2.83;;;;;;;;;;2080450;28;20669;-52
2021/12/02 05:19:56;;;;;;;4.30;2.57;;;;;;;;;;2081627;28;20334;-51
2021/12/02 05:20:57;;;;;;;3.13;2.80;;;;;;;;;;2082539;28;20337;-52
2021/12/02 05:21:57;;;;;;;4.90;2.80;;;;;;;;;;2080538;28;20169;-50
2021/12/02 05:22:58;;;;;;;4.23;2.63;;;;;;;;;;2083060;28;20180;-53
2021/12/02 05:23:58;;;;;;;4.17;3.07;;;;;;;;;;2080328;28;20164;-54
2021/12/02 05:24:58;;;;;;;5.03;2.97;;;;;;;;;;2081393;28;20177;-52
2021/12/02 05:25:59;;;;;;;4.10;3.20;;;;;;;;;;2082832;28;20172;-52
2021/12/02 05:26:59;;;;;;;4.67;3.33;;;;;;;;;;2079815;28;20184;-54
2021/12/02 05:27:59;;;;;;;5.63;2.80;;;;;;;;;;2081165;28;20538;-52
2021/12/02 05:28:59;;;;;;;2.50;2.40;;;;;;;;;;2078359;28;20182;-51
2021/12/02 05:30:00;;;;;;;4.20;2.83;;;;;;;;;;2081307;28;20175;-51
2021/12/02 05:31:01;;;;;;;3.10;2.87;;;;;;;;;;2065946;28;20181;-52
2021/12/02 05:32:02;;;;;;;3.60;2.70;;;;;;;;;;2071055;28;20645;-53
2021/12/02 05:33:02;;;;;;;3.00;2.80;;;;;;;;;;2081849;28;20165;-53
2021/12/02 05:34:02;;;;;;;3.97;2.70;;;;;;;;;;2083452;28;20188;-53
2021/12/02 05:35:03;;;;;;;4.17;3.37;;;;;;;;;;2074428;28;20177;-52
2021/12/02 05:36:03;;;;;;;4.97;3.07;;;;;;;;;;2079238;28;20679;-52
2021/12/02 05:37:04;;;;;;;3.50;3.20;;;;;;;;;;2078834;28;20195;-54
2021/12/02 05:38:04;;;;;;;3.10;2.60;;;;;;;;;;2078073;28;20191;-52
2021/12/02 05:39:04;;;;;;;3.80;3.00;;;;;;;;;;2078302;28;20179;-57
2021/12/02 05:40:05;;;;;;;3.67;3.37;;;;;;;;;;2079388;28;20173;-55
2021/12/02 05:41:06;;;;;;;8.47;3.60;;;;;;;;;;2076725;28;20185;-53
2021/12/02 05:42:06;;;;;;;3.97;3.67;;;;;;;;;;2073246;28;20545;-52
2021/12/02 05:43:06;;;;;;;3.70;3.20;;;;;;;;;;2076584;28;20192;-59
2021/12/02 05:44:07;;;;;;;3.53;3.10;;;;;;;;;;2075736;28;20184;-51
2021/12/02 05:45:07;;;;;;;3.43;3.13;;;;;;;;;;2074885;28;20236;-56
2021/12/02 05:46:08;;;;;;;3.83;3.50;;;;;;;;;;2084765;28;20204;-57
2021/12/02 05:47:08;;;;;;;3.70;3.27;;;;;;;;;;2081966;28;20206;-56
2021/12/02 05:48:08;;;;;;;3.40;3.10;;;;;;;;;;2083482;28;20849;-57
2021/12/02 05:49:08;;;;;;;3.27;3.07;;;;;;;;;;2081686;28;20181;-58
2021/12/02 05:50:09;;;;;;;3.77;3.47;;;;;;;;;;2081074;28;20251;-57
2021/12/02 05:51:09;;;;;;;4.73;3.03;;;;;;;;;;2080963;28;20222;-56
2021/12/02 05:52:09;;;;;;;6.37;3.27;;;;;;;;;;2082715;28;20172;-57
2021/12/02 05:53:09;;;;;;;4.33;3.43;;;;;;;;;;2079743;28;20177;-56
2021/12/02 05:54:10;;;;;;;3.50;3.20;;;;;;;;;;2080580;28;20189;-58
2021/12/02 05:55:10;;;;;;;3.43;3.10;;;;;;;;;;2078073;28;20203;-57
2021/12/02 05:56:10;;;;;;;4.07;3.63;;;;;;;;;;2083701;28;20176;-56
2021/12/02 05:57:10;;;;;;;5.73;3.53;;;;;;;;;;2077797;28;20168;-56
2021/12/02 05:58:12;;;;;;;3.77;3.40;;;;;;;;;;2076965;28;20192;-53
2021/12/02 05:59:12;;;;;;;3.83;3.53;;;;;;;;;;2074714;28;20534;-57
2021/12/02 06:00:12;;;;;;;3.20;2.93;;;;;;;;;;2077804;28;20223;-56
2021/12/02 06:01:12;;;;;;;3.43;3.13;;;;;;;;;;2078265;28;20197;-52
2021/12/02 06:02:13;;;;;;;5.33;3.67;;;;;;;;;;2079484;28;20189;-56
2021/12/02 06:03:13;;;;;;;6.37;3.30;;;;;;;;;;2080537;28;20169;-56
2021/12/02 06:04:13;;;;;;;3.60;3.30;;;;;;;;;;2078149;28;20215;-56
2021/12/02 06:05:19;;;;;;;3.33;3.13;;;;;;;;;;2077640;28;20212;-56
2021/12/02 06:06:22;;;;;;;6.77;3.47;;;;;;;;;;2079507;28;20248;-56
2021/12/02 06:07:22;;;;;;;4.03;3.57;;;;;;;;;;2079432;28;20164;-56
2021/12/02 06:08:23;;;;;;;3.90;3.60;;;;;;;;;;2075303;28;20185;-57
2021/12/02 06:09:23;;;;;;;3.57;3.30;;;;;;;;;;2079304;28;20657;-54
2021/12/02 06:10:25;;;;;;;4.57;3.50;;;;;;;;;;2078865;28;20175;-57
2021/12/02 06:11:25;;;;;;;3.70;3.40;;;;;;;;;;2068817;28;20201;-55
2021/12/02 06:12:25;;;;;;;4.13;3.37;;;;;;;;;;2076087;28;20169;-55
2021/12/02 06:13:26;;;;;;;3.47;3.20;;;;;;;;;;2076146;28;20798;-55
2021/12/02 06:14:27;;;;;;;4.63;3.63;;;;;;;;;;2078141;28;20185;-58
2021/12/02 06:15:27;;;;;;;3.97;3.63;;;;;;;;;;2074327;28;20174;-56
2021/12/02 06:16:27;;;;;;;3.70;3.40;;;;;;;;;;2077576;28;20184;-57
2021/12/02 06:17:27;;;;;;;4.50;4.10;;;;;;;;;;2077216;28;20160;-54
2021/12/02 06:18:27;;;;;;;4.33;3.70;;;;;;;;;;2078157;28;20177;-56
2021/12/02 06:19:28;;;;;;;3.77;3.47;;;;;;;;;;2076597;28;20188;-58
2021/12/02 06:20:28;;;;;;;3.73;3.47;;;;;;;;;;2067545;28;20177;-57
2021/12/02 06:21:29;;;;;;;4.87;3.93;;;;;;;;;;2075659;28;21459;-56